Time;durP1;ratioP1;P1;durP2;ratioP2;P2;SDS_P1;SDS_P2;PMS_P1;PMS_P2;Temp;Humidity;BMP_temperature;BMP_pressure;BME280_temperature;BME280_humidity;BME280_pressure;Samples;Min_cycle;Max_cycle;Signal;HPM_P1;HPM_P2
2022/04/10 00:01:24;;;;;;;12.68;1.75;;;;;;;;;;4956528;28;92493;-65
2022/04/10 00:03:51;;;;;;;7.00;1.92;;;;;;;;;;4956444;28;94207;-65
2022/04/10 00:06:17;;;;;;;7.47;1.77;;;;;;;;;;4953527;28;93305;-64
2022/04/10 00:08:43;;;;;;;8.18;1.83;;;;;;;;;;4968920;28;91747;-65
2022/04/10 00:11:10;;;;;;;13.15;2.00;;;;;;;;;;4956330;28;92518;-66
2022/04/10 00:13:37;;;;;;;12.93;1.65;;;;;;;;;;4956021;28;92863;-65
2022/04/10 00:16:04;;;;;;;7.20;2.17;;;;;;;;;;4954456;28;94918;-66
2022/04/10 00:18:31;;;;;;;5.47;1.88;;;;;;;;;;4956151;28;95679;-65
2022/04/10 00:20:57;;;;;;;5.55;1.83;;;;;;;;;;4959607;28;93825;-65
2022/04/10 00:23:24;;;;;;;9.15;2.00;;;;;;;;;;4956115;28;93116;-65
2022/04/10 00:25:50;;;;;;;11.57;2.75;;;;;;;;;;4956402;28;93306;-65
2022/04/10 00:28:16;;;;;;;7.55;2.00;;;;;;;;;;4955435;28;92995;-65
2022/04/10 00:30:42;;;;;;;12.25;2.22;;;;;;;;;;4956308;28;93520;-65
2022/04/10 00:33:09;;;;;;;10.65;1.85;;;;;;;;;;4956281;28;93593;-65
2022/04/10 00:35:35;;;;;;;7.68;1.90;;;;;;;;;;4956132;28;92410;-65
2022/04/10 00:38:02;;;;;;;8.70;2.05;;;;;;;;;;4955015;28;94184;-65
2022/04/10 00:40:28;;;;;;;12.38;2.30;;;;;;;;;;4953742;28;95872;-64
2022/04/10 00:42:54;;;;;;;17.05;2.75;;;;;;;;;;4959273;28;92485;-65
2022/04/10 00:45:20;;;;;;;7.88;2.13;;;;;;;;;;4956127;28;94443;-65
2022/04/10 00:47:47;;;;;;;13.43;2.47;;;;;;;;;;4956580;28;92404;-65
2022/04/10 00:50:15;;;;;;;13.82;2.50;;;;;;;;;;4955655;28;93124;-64
2022/04/10 00:52:42;;;;;;;10.98;2.03;;;;;;;;;;4944377;28;93419;-65
2022/04/10 00:55:09;;;;;;;9.75;2.10;;;;;;;;;;4955521;28;94453;-66
2022/04/10 00:57:35;;;;;;;19.00;2.30;;;;;;;;;;4956393;28;93238;-65
2022/04/10 01:00:04;;;;;;;21.35;2.55;;;;;;;;;;4955619;28;93387;-65
2022/04/10 01:02:30;;;;;;;9.05;2.30;;;;;;;;;;4955337;28;92475;-65
2022/04/10 01:04:56;;;;;;;10.85;2.33;;;;;;;;;;4956227;28;95279;-65
2022/04/10 01:07:23;;;;;;;15.88;3.25;;;;;;;;;;4969710;28;92607;-65
2022/04/10 01:09:49;;;;;;;9.77;2.13;;;;;;;;;;4955472;28;93202;-65
2022/04/10 01:12:15;;;;;;;14.10;2.30;;;;;;;;;;4954280;28;93197;-65
2022/04/10 01:14:41;;;;;;;10.25;2.47;;;;;;;;;;4954196;28;92620;-65
2022/04/10 01:17:08;;;;;;;10.45;2.20;;;;;;;;;;4955445;28;93081;-65
2022/04/10 01:19:37;;;;;;;14.85;3.20;;;;;;;;;;4954815;28;93399;-65
2022/04/10 01:22:04;;;;;;;10.18;2.28;;;;;;;;;;4955807;28;91793;-65
2022/04/10 01:24:34;;;;;;;8.15;2.28;;;;;;;;;;4958587;28;92583;-65
2022/04/10 01:27:02;;;;;;;13.83;3.13;;;;;;;;;;4954753;28;92542;-65
2022/04/10 01:29:28;;;;;;;6.38;2.35;;;;;;;;;;4953369;28;95105;-65
2022/04/10 01:31:55;;;;;;;7.97;2.78;;;;;;;;;;4955217;28;93277;-65
2022/04/10 01:34:22;;;;;;;12.88;3.60;;;;;;;;;;4954757;28;92590;-66
2022/04/10 01:36:48;;;;;;;11.30;3.65;;;;;;;;;;4954853;28;93647;-66
2022/04/10 01:39:17;;;;;;;15.75;3.33;;;;;;;;;;4954697;28;93291;-65
2022/04/10 01:41:46;;;;;;;13.50;3.17;;;;;;;;;;4955627;28;92560;-65
2022/04/10 01:44:12;;;;;;;15.20;2.70;;;;;;;;;;4935843;28;93202;-65
2022/04/10 01:46:38;;;;;;;11.20;3.20;;;;;;;;;;4956892;28;92685;-65
2022/04/10 01:49:06;;;;;;;13.27;2.88;;;;;;;;;;4954881;28;92435;-64
2022/04/10 01:51:32;;;;;;;12.18;3.15;;;;;;;;;;4954811;28;93473;-65
2022/04/10 01:53:59;;;;;;;18.42;4.28;;;;;;;;;;4953566;28;94995;-65
2022/04/10 01:56:25;;;;;;;15.15;2.85;;;;;;;;;;4953777;28;95573;-65
2022/04/10 01:58:52;;;;;;;14.25;3.42;;;;;;;;;;4954548;28;93518;-66
2022/04/10 02:01:19;;;;;;;9.05;3.30;;;;;;;;;;4954649;28;92856;-65
2022/04/10 02:03:50;;;;;;;13.15;3.15;;;;;;;;;;4953705;28;94407;-65
2022/04/10 02:06:17;;;;;;;12.32;2.78;;;;;;;;;;4952922;28;93087;-65
2022/04/10 02:08:43;;;;;;;13.18;3.00;;;;;;;;;;4957649;28;92557;-65
2022/04/10 02:11:18;;;;;;;11.82;3.38;;;;;;;;;;4954742;28;92495;-65
2022/04/10 02:13:45;;;;;;;17.45;3.13;;;;;;;;;;4954953;28;92473;-64
2022/04/10 02:16:12;;;;;;;14.68;3.20;;;;;;;;;;4952944;28;93098;-64
2022/04/10 02:18:39;;;;;;;18.00;3.38;;;;;;;;;;4952583;28;95824;-65
2022/04/10 02:21:05;;;;;;;12.73;3.25;;;;;;;;;;4954434;28;92360;-65
2022/04/10 02:23:31;;;;;;;12.40;2.97;;;;;;;;;;4954954;28;94243;-64
2022/04/10 02:25:58;;;;;;;15.82;3.60;;;;;;;;;;4954502;28;93476;-65
2022/04/10 02:28:24;;;;;;;9.27;2.70;;;;;;;;;;4954924;28;92494;-65
2022/04/10 02:30:50;;;;;;;14.52;3.20;;;;;;;;;;4957539;28;94611;-65
2022/04/10 02:33:17;;;;;;;13.18;3.33;;;;;;;;;;4950518;28;92411;-65
2022/04/10 02:35:43;;;;;;;18.10;3.20;;;;;;;;;;4954653;28;92979;-64
2022/04/10 02:38:10;;;;;;;15.82;2.95;;;;;;;;;;4954769;28;92438;-65
2022/04/10 02:40:36;;;;;;;8.05;2.80;;;;;;;;;;4956588;28;93899;-65
2022/04/10 02:43:03;;;;;;;12.38;2.88;;;;;;;;;;4956911;28;94827;-65
2022/04/10 02:45:29;;;;;;;10.93;2.45;;;;;;;;;;4957832;28;93309;-64
2022/04/10 02:47:55;;;;;;;14.30;2.92;;;;;;;;;;4956840;28;92503;-64
2022/04/10 02:50:22;;;;;;;11.30;2.33;;;;;;;;;;4957605;28;92938;-65
2022/04/10 02:52:50;;;;;;;11.95;2.83;;;;;;;;;;4960772;28;94446;-64
2022/04/10 02:55:16;;;;;;;14.55;2.65;;;;;;;;;;4949839;28;93322;-65
2022/04/10 02:57:42;;;;;;;11.77;3.10;;;;;;;;;;4948035;28;93322;-65
2022/04/10 03:00:09;;;;;;;12.85;2.80;;;;;;;;;;4957449;28;91704;-64
2022/04/10 03:02:38;;;;;;;7.35;2.25;;;;;;;;;;4957357;28;92501;-65
2022/04/10 03:05:04;;;;;;;11.35;2.80;;;;;;;;;;4957027;28;93391;-65
2022/04/10 03:07:30;;;;;;;17.20;2.30;;;;;;;;;;4954959;28;96607;-64
2022/04/10 03:09:57;;;;;;;7.93;2.53;;;;;;;;;;4956627;28;95832;-66
2022/04/10 03:12:23;;;;;;;22.73;4.13;;;;;;;;;;4961066;28;93073;-65
2022/04/10 03:14:49;;;;;;;10.60;2.40;;;;;;;;;;4966572;28;92504;-65
2022/04/10 03:17:16;;;;;;;7.13;2.53;;;;;;;;;;4956142;28;93594;-65
2022/04/10 03:19:42;;;;;;;13.52;2.97;;;;;;;;;;4956753;28;92606;-65
2022/04/10 03:22:08;;;;;;;10.95;2.78;;;;;;;;;;4956076;28;92515;-65
2022/04/10 03:24:34;;;;;;;17.13;3.70;;;;;;;;;;4957020;28;92413;-65
2022/04/10 03:27:01;;;;;;;13.73;2.97;;;;;;;;;;4956512;28;92685;-65
2022/04/10 03:29:27;;;;;;;6.97;2.25;;;;;;;;;;4956121;28;93237;-65
2022/04/10 03:31:53;;;;;;;13.68;2.88;;;;;;;;;;4953357;28;95935;-65
2022/04/10 03:34:20;;;;;;;14.60;3.20;;;;;;;;;;4959335;28;92481;-65
2022/04/10 03:36:46;;;;;;;16.33;3.00;;;;;;;;;;4955086;28;94440;-65
2022/04/10 03:39:12;;;;;;;9.15;2.60;;;;;;;;;;4956244;28;92484;-65
2022/04/10 03:41:39;;;;;;;6.65;2.60;;;;;;;;;;4956033;28;93109;-65
2022/04/10 03:44:05;;;;;;;10.98;2.40;;;;;;;;;;4955832;28;93549;-65
2022/04/10 03:46:31;;;;;;;11.00;2.65;;;;;;;;;;4955519;28;93378;-66
2022/04/10 03:48:58;;;;;;;10.88;2.80;;;;;;;;;;4956726;28;94295;-65
2022/04/10 03:51:24;;;;;;;12.05;3.08;;;;;;;;;;4955380;28;94410;-65
2022/04/10 03:53:50;;;;;;;7.07;2.38;;;;;;;;;;4955551;28;92431;-65
2022/04/10 03:56:17;;;;;;;14.05;3.30;;;;;;;;;;4957499;28;94939;-65
2022/04/10 03:58:43;;;;;;;7.63;2.72;;;;;;;;;;4955385;28;92516;-64
2022/04/10 04:01:11;;;;;;;19.60;3.42;;;;;;;;;;4955040;28;92714;-65
2022/04/10 04:03:38;;;;;;;16.92;3.22;;;;;;;;;;4955752;28;93465;-65
2022/04/10 04:06:04;;;;;;;15.68;2.60;;;;;;;;;;4955302;28;92776;-65
2022/04/10 04:08:31;;;;;;;12.10;2.97;;;;;;;;;;4912317;28;1083507;-65
2022/04/10 04:10:58;;;;;;;8.63;3.08;;;;;;;;;;4956434;28;92453;-65
2022/04/10 04:13:25;;;;;;;10.30;2.90;;;;;;;;;;4956464;28;91784;-67
2022/04/10 04:15:51;;;;;;;13.55;3.10;;;;;;;;;;4956556;28;92511;-65
2022/04/10 04:18:18;;;;;;;12.48;3.05;;;;;;;;;;4964252;28;93713;-64
2022/04/10 04:20:44;;;;;;;16.55;2.80;;;;;;;;;;4955043;28;94944;-65
2022/04/10 04:23:10;;;;;;;12.70;3.00;;;;;;;;;;4955800;28;93427;-65
2022/04/10 04:25:37;;;;;;;10.10;2.70;;;;;;;;;;4956758;28;92468;-65
2022/04/10 04:28:03;;;;;;;12.80;3.33;;;;;;;;;;4956649;28;96584;-65
2022/04/10 04:30:29;;;;;;;9.55;2.97;;;;;;;;;;4955325;28;93555;-65
2022/04/10 04:32:56;;;;;;;15.05;3.38;;;;;;;;;;4956653;28;92496;-65
2022/04/10 04:35:23;;;;;;;10.10;3.75;;;;;;;;;;4955822;28;94350;-65
2022/04/10 04:37:49;;;;;;;11.70;3.70;;;;;;;;;;4956477;28;92571;-64
2022/04/10 04:40:16;;;;;;;15.68;3.20;;;;;;;;;;4958549;28;92444;-65
2022/04/10 04:42:43;;;;;;;8.93;3.20;;;;;;;;;;4956204;28;93461;-65
2022/04/10 04:45:09;;;;;;;10.38;3.75;;;;;;;;;;4954719;28;95173;-65
2022/04/10 04:47:36;;;;;;;9.55;3.35;;;;;;;;;;4955910;28;95608;-65
2022/04/10 04:50:02;;;;;;;9.98;3.35;;;;;;;;;;4956091;28;93334;-65
2022/04/10 04:52:28;;;;;;;8.25;3.40;;;;;;;;;;4955720;28;92507;-65
2022/04/10 04:54:54;;;;;;;7.15;3.17;;;;;;;;;;4955576;28;93321;-65
2022/04/10 04:57:21;;;;;;;10.20;4.00;;;;;;;;;;4955029;28;93107;-65
2022/04/10 04:59:47;;;;;;;9.73;3.05;;;;;;;;;;4954176;28;92528;-65
2022/04/10 05:02:13;;;;;;;11.82;3.85;;;;;;;;;;4958132;28;93181;-65
2022/04/10 05:04:40;;;;;;;11.70;3.25;;;;;;;;;;4956066;28;92541;-65
2022/04/10 05:07:06;;;;;;;15.85;3.53;;;;;;;;;;4954897;28;93111;-65
2022/04/10 05:09:32;;;;;;;14.43;3.00;;;;;;;;;;4953636;28;95760;-65
2022/04/10 05:11:58;;;;;;;12.75;4.38;;;;;;;;;;4952113;28;92516;-65
2022/04/10 05:14:25;;;;;;;13.43;4.05;;;;;;;;;;4954564;28;93279;-64
2022/04/10 05:16:51;;;;;;;10.50;3.05;;;;;;;;;;4954776;28;93522;-65
2022/04/10 05:19:17;;;;;;;8.98;2.90;;;;;;;;;;4955302;28;92446;-65
2022/04/10 05:21:44;;;;;;;15.50;3.20;;;;;;;;;;4958231;28;93154;-65
2022/04/10 05:24:10;;;;;;;7.97;2.72;;;;;;;;;;4967603;28;92893;-65
2022/04/10 05:26:36;;;;;;;15.25;2.78;;;;;;;;;;4955758;28;93920;-65
2022/04/10 05:29:02;;;;;;;14.30;3.03;;;;;;;;;;4954228;28;94114;-65
2022/04/10 05:31:29;;;;;;;13.10;2.92;;;;;;;;;;4954811;28;92492;-65
2022/04/10 05:33:55;;;;;;;12.23;2.88;;;;;;;;;;4953828;28;94842;-65
2022/04/10 05:36:21;;;;;;;9.27;3.20;;;;;;;;;;4954683;28;93407;-66
2022/04/10 05:38:48;;;;;;;12.45;3.22;;;;;;;;;;4955400;28;92469;-65
2022/04/10 05:41:14;;;;;;;15.07;2.97;;;;;;;;;;4955245;28;93178;-65
2022/04/10 05:43:40;;;;;;;13.35;2.42;;;;;;;;;;4952911;28;94424;-64
2022/04/10 05:46:06;;;;;;;17.80;4.88;;;;;;;;;;4945814;28;92527;-65
2022/04/10 05:48:33;;;;;;;9.07;2.80;;;;;;;;;;4955308;28;94433;-65
2022/04/10 05:50:59;;;;;;;11.75;3.05;;;;;;;;;;4955807;28;91834;-65
2022/04/10 05:53:25;;;;;;;12.43;3.17;;;;;;;;;;4955248;28;93503;-65
2022/04/10 05:55:51;;;;;;;12.32;3.30;;;;;;;;;;4954483;28;93583;-65
2022/04/10 05:58:18;;;;;;;15.82;3.67;;;;;;;;;;4952747;28;94933;-65
2022/04/10 06:00:44;;;;;;;16.75;4.53;;;;;;;;;;4953433;28;95270;-65
2022/04/10 06:03:10;;;;;;;13.15;3.35;;;;;;;;;;4953590;28;93486;-65
2022/04/10 06:05:37;;;;;;;10.80;3.25;;;;;;;;;;4957610;28;92567;-66
2022/04/10 06:08:03;;;;;;;13.60;2.58;;;;;;;;;;4953449;28;94556;-65
2022/04/10 06:10:29;;;;;;;11.23;3.42;;;;;;;;;;4952466;28;92506;-64
2022/04/10 06:13:05;;;;;;;12.68;2.85;;;;;;;;;;4955154;28;94238;-63
2022/04/10 06:15:31;;;;;;;17.60;3.80;;;;;;;;;;4954640;28;93650;-64
2022/04/10 06:17:58;;;;;;;11.75;3.13;;;;;;;;;;4954639;28;92415;-65
2022/04/10 06:20:24;;;;;;;13.93;2.17;;;;;;;;;;4954774;28;92946;-63
2022/04/10 06:22:50;;;;;;;13.32;2.88;;;;;;;;;;4952984;28;95905;-65
2022/04/10 06:25:16;;;;;;;11.65;2.80;;;;;;;;;;4955009;28;92426;-64
2022/04/10 06:27:43;;;;;;;8.00;1.77;;;;;;;;;;4957335;28;93223;-64
2022/04/10 06:30:09;;;;;;;5.82;1.70;;;;;;;;;;4954882;28;92498;-64
2022/04/10 06:32:36;;;;;;;14.52;1.90;;;;;;;;;;4953215;28;93032;-63
2022/04/10 06:35:03;;;;;;;13.13;2.80;;;;;;;;;;4953603;28;93353;-63
2022/04/10 06:37:29;;;;;;;7.63;1.80;;;;;;;;;;4953871;28;93010;-64
2022/04/10 06:39:55;;;;;;;7.15;1.92;;;;;;;;;;4954901;28;92933;-64
2022/04/10 06:42:21;;;;;;;10.65;2.35;;;;;;;;;;4954228;28;93221;-64
2022/04/10 06:44:48;;;;;;;5.43;1.50;;;;;;;;;;4954440;28;92593;-64
2022/04/10 06:47:14;;;;;;;9.02;1.85;;;;;;;;;;4953626;28;95150;-65
2022/04/10 06:49:40;;;;;;;10.40;1.35;;;;;;;;;;4974139;28;93456;-64
2022/04/10 06:52:07;;;;;;;5.18;1.40;;;;;;;;;;4955252;28;93432;-64
2022/04/10 06:54:33;;;;;;;10.35;1.70;;;;;;;;;;4947963;28;94911;-63
2022/04/10 06:56:59;;;;;;;5.43;0.95;;;;;;;;;;4944505;28;92404;-64
2022/04/10 06:59:25;;;;;;;6.40;1.25;;;;;;;;;;4946370;28;93010;-64
2022/04/10 07:01:52;;;;;;;12.15;2.17;;;;;;;;;;4951546;28;93338;-62
2022/04/10 07:04:18;;;;;;;7.88;1.55;;;;;;;;;;4953592;28;91826;-64
2022/04/10 07:06:46;;;;;;;7.30;1.98;;;;;;;;;;4949174;28;93446;-63
2022/04/10 07:09:14;;;;;;;4.15;1.58;;;;;;;;;;4954495;28;93922;-64
2022/04/10 07:11:41;;;;;;;3.30;1.30;;;;;;;;;;4955649;28;94911;-64
2022/04/10 07:14:07;;;;;;;9.70;1.23;;;;;;;;;;4953890;28;93495;-64
2022/04/10 07:16:33;;;;;;;7.30;1.60;;;;;;;;;;4954536;28;92445;-65
2022/04/10 07:19:00;;;;;;;7.30;1.65;;;;;;;;;;4953966;28;94595;-65
2022/04/10 07:24:10;;;;;;;6.72;1.55;;;;;;;;;;4953690;28;92523;-64
2022/04/10 07:26:37;;;;;;;5.30;1.30;;;;;;;;;;4956468;28;93230;-64
2022/04/10 07:29:03;;;;;;;5.68;1.25;;;;;;;;;;4958037;28;92873;-65
2022/04/10 07:31:30;;;;;;;5.30;1.55;;;;;;;;;;4957595;28;92440;-65
2022/04/10 07:33:56;;;;;;;7.30;1.60;;;;;;;;;;4955939;28;93502;-65
2022/04/10 07:36:22;;;;;;;4.03;1.48;;;;;;;;;;4956149;28;94811;-65
2022/04/10 07:38:49;;;;;;;3.95;1.60;;;;;;;;;;4957519;28;94172;-65
2022/04/10 07:41:15;;;;;;;6.18;1.90;;;;;;;;;;4957867;28;92444;-65
2022/04/10 07:43:41;;;;;;;4.90;1.45;;;;;;;;;;4956415;28;92448;-66
2022/04/10 07:48:53;;;;;;;6.72;1.55;;;;;;;;;;4952455;28;93438;-66
2022/04/10 07:51:19;;;;;;;4.82;1.30;;;;;;;;;;4949493;28;92411;-65
2022/04/10 07:53:45;;;;;;;9.07;1.55;;;;;;;;;;4960276;28;94538;-66
2022/04/10 07:56:11;;;;;;;10.60;1.70;;;;;;;;;;4956548;28;92362;-66
2022/04/10 07:58:38;;;;;;;6.40;1.55;;;;;;;;;;4953297;28;94042;-66
2022/04/10 08:01:06;;;;;;;6.25;1.75;;;;;;;;;;4939989;28;96961;-65
2022/04/10 08:03:32;;;;;;;7.13;1.60;;;;;;;;;;4956018;28;92447;-67
2022/04/10 08:05:58;;;;;;;5.13;1.70;;;;;;;;;;4957075;28;94181;-64
2022/04/10 08:08:25;;;;;;;10.82;1.70;;;;;;;;;;4945973;28;93095;-64
2022/04/10 08:10:51;;;;;;;6.97;1.52;;;;;;;;;;4953654;28;92360;-65
2022/04/10 08:13:18;;;;;;;5.85;1.58;;;;;;;;;;4955828;28;93319;-66
2022/04/10 08:15:44;;;;;;;5.30;1.55;;;;;;;;;;4959591;28;93411;-65
2022/04/10 08:18:11;;;;;;;7.95;1.52;;;;;;;;;;4956911;28;93128;-64
2022/04/10 08:20:37;;;;;;;4.70;1.40;;;;;;;;;;4956432;28;93204;-64
2022/04/10 08:23:03;;;;;;;4.57;1.27;;;;;;;;;;4955498;28;92547;-65
2022/04/10 08:25:30;;;;;;;13.93;2.22;;;;;;;;;;4955196;28;94775;-64
2022/04/10 08:27:56;;;;;;;5.95;1.25;;;;;;;;;;4956369;28;93502;-65
2022/04/10 08:30:23;;;;;;;9.85;1.65;;;;;;;;;;4956467;28;92556;-65
2022/04/10 08:32:49;;;;;;;8.88;1.23;;;;;;;;;;4955702;28;93194;-65
2022/04/10 08:35:16;;;;;;;9.30;1.83;;;;;;;;;;4955277;28;93305;-64
2022/04/10 08:37:42;;;;;;;9.40;1.65;;;;;;;;;;4956065;28;92699;-64
2022/04/10 08:40:09;;;;;;;9.60;1.50;;;;;;;;;;4956318;28;93306;-64
2022/04/10 08:42:35;;;;;;;8.98;1.48;;;;;;;;;;4957205;28;91685;-64
2022/04/10 08:45:02;;;;;;;3.38;0.93;;;;;;;;;;4956147;28;92400;-64
2022/04/10 08:47:29;;;;;;;13.23;1.95;;;;;;;;;;4964783;28;94020;-65
2022/04/10 08:49:57;;;;;;;4.35;1.33;;;;;;;;;;4973996;28;94812;-64
2022/04/10 08:52:23;;;;;;;4.05;1.08;;;;;;;;;;4958862;28;95544;-65
2022/04/10 08:54:49;;;;;;;5.28;1.10;;;;;;;;;;4954669;28;93861;-64
2022/04/10 08:57:15;;;;;;;8.35;1.75;;;;;;;;;;4954945;28;92755;-63
2022/04/10 08:59:42;;;;;;;7.95;1.48;;;;;;;;;;4958287;28;93021;-64
2022/04/10 09:02:10;;;;;;;15.10;1.80;;;;;;;;;;4958772;28;92420;-62
2022/04/10 09:04:37;;;;;;;11.65;1.60;;;;;;;;;;4963255;28;93007;-63
2022/04/10 09:07:05;;;;;;;5.63;1.55;;;;;;;;;;4958154;28;92669;-63
2022/04/10 09:09:32;;;;;;;9.38;1.55;;;;;;;;;;4962390;28;92813;-64
2022/04/10 09:11:58;;;;;;;8.98;1.77;;;;;;;;;;4963140;28;93131;-63
2022/04/10 09:14:28;;;;;;;6.25;1.85;;;;;;;;;;4954026;28;95677;-66
2022/04/10 09:17:11;;;;;;;8.50;1.67;;;;;;;;;;4955580;28;92443;-65
2022/04/10 09:19:38;;;;;;;5.65;1.23;;;;;;;;;;4955587;28;94671;-64
2022/04/10 09:22:19;;;;;;;7.47;1.15;;;;;;;;;;4957354;28;94526;-64
2022/04/10 09:25:04;;;;;;;9.23;1.63;;;;;;;;;;4955927;28;94297;-63
2022/04/10 09:27:31;;;;;;;13.07;1.90;;;;;;;;;;4955510;28;93448;-63
2022/04/10 09:30:01;;;;;;;13.55;1.73;;;;;;;;;;4955312;28;92572;-67
2022/04/10 09:32:37;;;;;;;7.75;1.70;;;;;;;;;;4955181;28;94500;-67
2022/04/10 09:35:04;;;;;;;4.38;1.30;;;;;;;;;;4952111;28;93667;-65
2022/04/10 09:37:41;;;;;;;7.00;1.48;;;;;;;;;;4935922;28;92486;-64
2022/04/10 09:40:19;;;;;;;4.82;1.25;;;;;;;;;;4937299;28;94894;-64
2022/04/10 09:42:48;;;;;;;12.65;2.33;;;;;;;;;;4958191;28;94520;-65
2022/04/10 09:45:32;;;;;;;7.10;1.40;;;;;;;;;;4955458;28;93004;-64
2022/04/10 09:48:15;;;;;;;5.47;1.35;;;;;;;;;;4954830;28;93268;-69
2022/04/10 09:50:41;;;;;;;7.85;1.80;;;;;;;;;;4941961;28;92622;-64
2022/04/10 09:53:08;;;;;;;7.88;1.25;;;;;;;;;;4952621;28;92638;-65
2022/04/10 09:55:35;;;;;;;9.50;1.73;;;;;;;;;;4948705;28;94514;-64
2022/04/10 09:58:05;;;;;;;11.38;1.67;;;;;;;;;;4955075;28;91814;-64
2022/04/10 10:00:31;;;;;;;4.72;1.15;;;;;;;;;;4953984;28;92448;-64
2022/04/10 10:02:58;;;;;;;8.60;1.70;;;;;;;;;;4954916;28;93674;-65
2022/04/10 10:05:25;;;;;;;4.50;1.13;;;;;;;;;;4956038;28;94887;-64
2022/04/10 10:07:51;;;;;;;6.82;1.77;;;;;;;;;;4954410;28;93575;-65
2022/04/10 10:10:20;;;;;;;4.72;1.27;;;;;;;;;;4954289;28;92465;-66
2022/04/10 10:12:48;;;;;;;6.40;1.48;;;;;;;;;;4954786;28;93153;-65
2022/04/10 10:15:14;;;;;;;4.07;1.25;;;;;;;;;;4954486;28;97084;-64
2022/04/10 10:17:42;;;;;;;3.05;0.75;;;;;;;;;;4954718;28;92469;-65
2022/04/10 10:20:09;;;;;;;5.10;1.00;;;;;;;;;;4954204;28;93207;-64
2022/04/10 10:22:35;;;;;;;10.98;1.63;;;;;;;;;;4954126;28;93807;-64
2022/04/10 10:25:15;;;;;;;3.53;1.00;;;;;;;;;;4954971;28;92687;-64
2022/04/10 10:27:51;;;;;;;7.68;1.30;;;;;;;;;;4957848;28;94323;-63
2022/04/10 10:30:36;;;;;;;6.05;0.98;;;;;;;;;;4950083;28;95221;-63
2022/04/10 10:33:19;;;;;;;4.38;1.10;;;;;;;;;;4954685;28;95592;-63
2022/04/10 10:35:49;;;;;;;9.50;1.95;;;;;;;;;;4954395;28;93470;-62
2022/04/10 10:38:19;;;;;;;6.53;1.30;;;;;;;;;;4954202;28;92576;-63
2022/04/10 10:40:45;;;;;;;5.07;1.10;;;;;;;;;;4954149;28;93337;-64
2022/04/10 10:43:16;;;;;;;5.18;1.25;;;;;;;;;;4950953;28;95500;-63
2022/04/10 10:45:43;;;;;;;3.45;1.30;;;;;;;;;;4968264;28;95288;-63
2022/04/10 10:48:32;;;;;;;7.68;1.42;;;;;;;;;;4959348;28;94449;-61
2022/04/10 10:51:02;;;;;;;4.38;1.15;;;;;;;;;;4956560;28;93055;-65
2022/04/10 10:53:47;;;;;;;4.97;1.35;;;;;;;;;;4954078;28;93182;-64
2022/04/10 10:56:20;;;;;;;5.03;1.23;;;;;;;;;;4951883;28;97041;-64
2022/04/10 10:59:22;;;;;;;7.13;1.20;;;;;;;;;;4949741;28;92591;-63
2022/04/10 11:01:54;;;;;;;5.25;1.45;;;;;;;;;;4937515;28;93155;-64
2022/04/10 11:04:21;;;;;;;4.32;1.20;;;;;;;;;;4937966;28;94835;-63
2022/04/10 11:06:47;;;;;;;3.95;1.13;;;;;;;;;;4954521;28;92496;-63
2022/04/10 11:09:27;;;;;;;6.28;1.42;;;;;;;;;;4957989;28;92927;-64
2022/04/10 11:11:55;;;;;;;1.85;1.00;;;;;;;;;;4957615;28;93495;-63
2022/04/10 11:14:33;;;;;;;6.80;1.40;;;;;;;;;;4946562;28;91713;-64
2022/04/10 11:17:18;;;;;;;4.90;1.20;;;;;;;;;;4957685;28;93660;-64
2022/04/10 11:19:49;;;;;;;7.93;1.55;;;;;;;;;;4957192;28;92984;-64
2022/04/10 11:22:20;;;;;;;5.85;1.60;;;;;;;;;;4955871;28;94835;-63
2022/04/10 11:24:50;;;;;;;3.13;1.25;;;;;;;;;;4957643;28;94571;-63
2022/04/10 11:27:36;;;;;;;4.97;1.15;;;;;;;;;;4957518;28;92767;-64
2022/04/10 11:30:03;;;;;;;6.35;1.13;;;;;;;;;;4956537;28;92433;-65
2022/04/10 11:32:39;;;;;;;4.90;1.63;;;;;;;;;;4957213;28;93976;-65
2022/04/10 11:35:12;;;;;;;8.00;1.42;;;;;;;;;;4957311;28;92483;-64
2022/04/10 11:37:39;;;;;;;5.25;1.33;;;;;;;;;;4960199;28;94234;-63
2022/04/10 11:40:06;;;;;;;5.25;1.10;;;;;;;;;;4958042;28;91747;-64
2022/04/10 11:42:32;;;;;;;4.32;1.30;;;;;;;;;;4956898;28;93752;-64
2022/04/10 11:44:59;;;;;;;3.95;1.35;;;;;;;;;;4957306;28;93549;-64
2022/04/10 11:47:26;;;;;;;5.43;1.20;;;;;;;;;;4955278;28;94855;-63
2022/04/10 11:49:53;;;;;;;5.07;1.30;;;;;;;;;;4957179;28;95421;-64
2022/04/10 11:52:20;;;;;;;7.97;1.73;;;;;;;;;;4956541;28;93474;-64
2022/04/10 11:54:49;;;;;;;5.40;1.52;;;;;;;;;;4957319;28;93103;-64
2022/04/10 11:57:15;;;;;;;5.90;1.40;;;;;;;;;;4959653;28;93035;-63
2022/04/10 11:59:43;;;;;;;3.97;0.90;;;;;;;;;;4955540;28;92434;-66
2022/04/10 12:02:14;;;;;;;9.52;1.45;;;;;;;;;;4956871;28;93206;-63
2022/04/10 12:04:41;;;;;;;5.20;1.30;;;;;;;;;;4957293;28;92789;-64
2022/04/10 12:07:12;;;;;;;7.95;1.55;;;;;;;;;;4955841;28;92515;-64
2022/04/10 12:09:39;;;;;;;2.67;0.93;;;;;;;;;;4941784;28;93591;-63
2022/04/10 12:12:06;;;;;;;4.97;1.33;;;;;;;;;;4954772;28;96870;-64
2022/04/10 12:14:32;;;;;;;7.53;1.10;;;;;;;;;;4956376;28;93185;-63
2022/04/10 12:16:58;;;;;;;3.13;1.10;;;;;;;;;;4956690;28;92892;-64
2022/04/10 12:19:33;;;;;;;11.38;1.20;;;;;;;;;;4959870;28;93435;-64
2022/04/10 12:21:59;;;;;;;6.03;1.50;;;;;;;;;;4956879;28;94084;-64
2022/04/10 12:24:25;;;;;;;3.90;1.30;;;;;;;;;;4955201;28;94044;-64
2022/04/10 12:26:52;;;;;;;3.53;1.10;;;;;;;;;;4955492;28;92436;-64
2022/04/10 12:29:18;;;;;;;4.45;1.20;;;;;;;;;;4956337;28;93086;-63
2022/04/10 12:31:45;;;;;;;4.72;1.05;;;;;;;;;;4955974;28;94524;-64
2022/04/10 12:34:13;;;;;;;3.03;1.20;;;;;;;;;;4956401;28;92503;-64
2022/04/10 12:36:47;;;;;;;5.68;1.10;;;;;;;;;;4955040;28;95302;-64
2022/04/10 12:39:28;;;;;;;5.85;1.13;;;;;;;;;;4955707;28;94522;-63
2022/04/10 12:41:59;;;;;;;6.32;1.30;;;;;;;;;;4954683;28;92775;-62
2022/04/10 12:44:25;;;;;;;3.78;1.10;;;;;;;;;;4946700;28;94913;-63
2022/04/10 12:46:52;;;;;;;2.33;0.93;;;;;;;;;;4955675;28;92435;-63
2022/04/10 12:49:19;;;;;;;2.72;0.60;;;;;;;;;;4956951;28;93191;-62
2022/04/10 12:51:52;;;;;;;3.17;0.85;;;;;;;;;;4955165;28;94134;-63
2022/04/10 12:54:31;;;;;;;1.58;0.63;;;;;;;;;;4946095;28;91701;-62
2022/04/10 12:56:58;;;;;;;2.85;0.82;;;;;;;;;;4953918;28;93121;-62
2022/04/10 12:59:34;;;;;;;5.13;1.20;;;;;;;;;;4954503;28;93235;-62
2022/04/10 13:02:01;;;;;;;4.07;1.00;;;;;;;;;;4952149;28;94883;-62
2022/04/10 13:04:29;;;;;;;6.50;1.30;;;;;;;;;;4954265;28;95625;-62
2022/04/10 13:06:55;;;;;;;4.45;1.02;;;;;;;;;;4952674;28;92486;-62
2022/04/10 13:09:22;;;;;;;5.57;1.30;;;;;;;;;;4954992;28;93071;-62
2022/04/10 13:11:50;;;;;;;3.60;1.35;;;;;;;;;;4956156;28;93374;-62
2022/04/10 13:14:16;;;;;;;5.82;1.27;;;;;;;;;;4954908;28;92510;-63
2022/04/10 13:16:43;;;;;;;3.50;1.10;;;;;;;;;;4955398;28;93221;-63
2022/04/10 13:19:19;;;;;;;2.72;1.10;;;;;;;;;;4956354;28;92647;-62
2022/04/10 13:21:46;;;;;;;7.97;1.27;;;;;;;;;;4955720;28;92446;-63
2022/04/10 13:24:13;;;;;;;2.67;0.80;;;;;;;;;;4955393;28;94105;-63
2022/04/10 13:26:39;;;;;;;4.80;0.82;;;;;;;;;;4956165;28;95863;-63
2022/04/10 13:29:07;;;;;;;4.82;1.02;;;;;;;;;;4955784;28;96697;-63
2022/04/10 13:31:33;;;;;;;3.75;0.65;;;;;;;;;;4955334;28;94584;-63
2022/04/10 13:34:00;;;;;;;6.20;1.15;;;;;;;;;;4955867;28;92468;-63
2022/04/10 13:36:26;;;;;;;4.85;1.00;;;;;;;;;;4955809;28;94194;-62
2022/04/10 13:38:52;;;;;;;2.30;1.00;;;;;;;;;;4954477;28;93372;-62
2022/04/10 13:41:20;;;;;;;4.70;1.20;;;;;;;;;;4954923;28;92470;-62
2022/04/10 13:43:47;;;;;;;2.47;0.80;;;;;;;;;;4956032;28;92917;-62
2022/04/10 13:46:14;;;;;;;10.48;1.40;;;;;;;;;;4955179;28;93829;-63
2022/04/10 13:48:41;;;;;;;9.68;1.38;;;;;;;;;;4958115;28;92682;-62
2022/04/10 13:51:07;;;;;;;5.00;0.90;;;;;;;;;;4951438;28;95853;-63
2022/04/10 13:53:34;;;;;;;6.13;1.08;;;;;;;;;;4953795;28;92422;-62
2022/04/10 13:56:00;;;;;;;7.18;1.35;;;;;;;;;;4954305;28;92947;-62
2022/04/10 13:58:26;;;;;;;5.32;1.17;;;;;;;;;;4955072;28;93419;-62
2022/04/10 14:00:58;;;;;;;5.65;1.13;;;;;;;;;;4968079;28;92581;-64
2022/04/10 14:03:25;;;;;;;7.93;1.42;;;;;;;;;;4954168;28;92434;-64
2022/04/10 14:05:51;;;;;;;4.15;1.13;;;;;;;;;;4954728;28;93947;-64
2022/04/10 14:08:17;;;;;;;5.38;1.17;;;;;;;;;;4957683;28;93480;-62
2022/04/10 14:11:04;;;;;;;5.50;1.60;;;;;;;;;;4947161;28;94859;-62
2022/04/10 14:13:31;;;;;;;6.55;0.98;;;;;;;;;;4954913;28;92516;-62
2022/04/10 14:15:57;;;;;;;6.60;1.23;;;;;;;;;;4958672;28;94903;-62
2022/04/10 14:18:23;;;;;;;4.45;1.52;;;;;;;;;;4974662;28;94855;-62
2022/04/10 14:20:50;;;;;;;4.53;0.90;;;;;;;;;;4974391;28;92470;-62
2022/04/10 14:23:17;;;;;;;2.10;0.95;;;;;;;;;;4960310;28;93948;-62
2022/04/10 14:25:44;;;;;;;4.50;0.85;;;;;;;;;;4954969;28;93501;-62
2022/04/10 14:28:14;;;;;;;3.90;1.08;;;;;;;;;;4954718;28;92502;-63
2022/04/10 14:30:40;;;;;;;5.05;1.20;;;;;;;;;;4956039;28;93438;-62
2022/04/10 14:33:07;;;;;;;5.38;1.25;;;;;;;;;;4954392;28;91892;-63
2022/04/10 14:35:33;;;;;;;3.75;1.17;;;;;;;;;;4956678;28;92364;-63
2022/04/10 14:37:59;;;;;;;3.72;1.25;;;;;;;;;;4958254;28;93150;-63
2022/04/10 14:40:25;;;;;;;6.43;1.33;;;;;;;;;;4956213;28;94893;-62
2022/04/10 14:42:52;;;;;;;4.72;1.08;;;;;;;;;;4957670;28;95454;-63
2022/04/10 14:45:18;;;;;;;5.07;1.13;;;;;;;;;;4958389;28;93459;-62
2022/04/10 14:47:44;;;;;;;2.20;0.88;;;;;;;;;;4957033;28;92532;-63